createdAt,value
2017-12-01T00:00:02.127Z,99.90
2017-12-01T00:02:28.809Z,99.90
2017-12-01T00:04:55.501Z,99.90
2017-12-01T00:07:22.146Z,99.90
2017-12-01T00:09:49.649Z,99.90
2017-12-01T00:12:16.327Z,99.90
2017-12-01T00:14:43.003Z,99.90
2017-12-01T00:17:10.417Z,99.90
2017-12-01T00:19:38.075Z,99.90
2017-12-01T00:22:04.752Z,99.90
2017-12-01T00:24:32.202Z,99.90
2017-12-01T00:26:58.858Z,99.90
2017-12-01T00:29:26.282Z,99.90
2017-12-01T00:31:52.944Z,99.90
2017-12-01T00:34:19.643Z,99.90
2017-12-01T00:36:46.318Z,99.90
2017-12-01T00:39:12.994Z,99.90
2017-12-01T00:41:39.697Z,99.90
2017-12-01T00:44:06.360Z,99.90
2017-12-01T00:46:33.029Z,99.90
2017-12-01T00:48:59.782Z,99.90
2017-12-01T00:51:27.197Z,99.90
2017-12-01T00:53:53.865Z,99.90
2017-12-01T00:56:21.316Z,99.90
2017-12-01T00:58:48.801Z,99.90
2017-12-01T01:01:15.502Z,99.90
2017-12-01T01:03:42.188Z,99.90
2017-12-01T01:06:09.963Z,99.90
2017-12-01T01:08:36.764Z,99.90
2017-12-01T01:11:03.471Z,99.90
2017-12-01T01:13:30.125Z,99.90
2017-12-01T01:15:56.808Z,99.90
2017-12-01T01:18:23.836Z,99.90
2017-12-01T01:20:50.607Z,99.90
2017-12-01T01:23:17.398Z,99.90
2017-12-01T01:25:45.399Z,99.90
2017-12-01T01:28:12.081Z,99.90
2017-12-01T01:30:39.530Z,99.90
2017-12-01T01:33:06.188Z,99.90
2017-12-01T01:35:33.601Z,99.90
2017-12-01T01:38:00.252Z,99.90
2017-12-01T01:40:27.739Z,99.90
2017-12-01T01:42:54.456Z,99.90
2017-12-01T01:45:21.210Z,99.90
2017-12-01T01:47:47.959Z,99.90
2017-12-01T01:50:14.649Z,99.90
2017-12-01T01:52:41.488Z,99.90
2017-12-01T01:55:09.267Z,99.90
2017-12-01T01:57:36.097Z,99.90
2017-12-01T02:00:02.836Z,99.90
2017-12-01T02:02:30.296Z,99.90
2017-12-01T02:04:57.829Z,99.90
2017-12-01T02:07:24.598Z,99.90
2017-12-01T02:09:52.046Z,99.90
2017-12-01T02:12:18.817Z,99.90
2017-12-01T02:14:46.400Z,99.90
2017-12-01T02:17:13.922Z,99.90
2017-12-01T02:19:41.439Z,99.90
2017-12-01T02:22:08.202Z,99.90
2017-12-01T02:24:34.934Z,99.90
2017-12-01T02:27:01.678Z,99.90
2017-12-01T02:29:28.444Z,99.90
2017-12-01T02:31:55.223Z,99.90
2017-12-01T02:34:21.972Z,99.90
2017-12-01T02:36:48.737Z,99.90
2017-12-01T02:39:15.480Z,99.90
2017-12-01T02:41:42.242Z,99.90
2017-12-01T02:44:09.013Z,99.90
2017-12-01T02:46:35.775Z,99.90
2017-12-01T02:49:02.538Z,99.90
2017-12-01T02:51:30.025Z,99.90
2017-12-01T02:53:57.062Z,99.90
2017-12-01T02:56:24.146Z,99.90
2017-12-01T02:58:50.875Z,99.90
2017-12-01T03:01:17.617Z,99.90
2017-12-01T03:03:44.733Z,99.90
2017-12-01T03:06:12.211Z,99.90
2017-12-01T03:08:38.942Z,99.90
2017-12-01T03:11:06.429Z,99.90
2017-12-01T03:13:33.168Z,99.90
2017-12-01T03:15:59.898Z,99.90
2017-12-01T03:18:27.732Z,99.90
2017-12-01T03:20:54.467Z,99.90
2017-12-01T03:23:21.202Z,99.90
2017-12-01T03:25:47.951Z,99.90
2017-12-01T03:28:14.723Z,99.90
2017-12-01T03:30:41.483Z,99.90
2017-12-01T03:33:08.995Z,99.90
2017-12-01T03:35:35.756Z,99.90
2017-12-01T03:38:02.483Z,99.90
2017-12-01T03:40:29.336Z,99.90
2017-12-01T03:42:56.094Z,99.90
2017-12-01T03:45:22.831Z,99.90
2017-12-01T03:47:49.593Z,99.90
2017-12-01T03:50:16.354Z,99.90
2017-12-01T03:52:43.984Z,99.90
2017-12-01T03:55:10.773Z,99.90
2017-12-01T03:57:38.272Z,99.90
2017-12-01T04:00:05.017Z,99.90
2017-12-01T04:02:31.780Z,99.90
2017-12-01T04:04:58.508Z,99.90
2017-12-01T04:07:25.388Z,99.90
2017-12-01T04:09:52.983Z,99.90
2017-12-01T04:12:20.478Z,99.90
2017-12-01T04:14:47.409Z,99.90
2017-12-01T04:17:14.625Z,99.90
2017-12-01T04:19:41.388Z,99.90
2017-12-01T04:22:08.886Z,99.90
2017-12-01T04:24:35.639Z,99.90
2017-12-01T04:27:02.380Z,99.90
2017-12-01T04:29:29.308Z,99.90
2017-12-01T04:31:56.107Z,99.90
2017-12-01T04:34:23.152Z,99.90
2017-12-01T04:36:50.876Z,99.90
2017-12-01T04:39:17.622Z,99.90
2017-12-01T04:41:44.619Z,99.90
2017-12-01T04:44:11.389Z,99.90
2017-12-01T04:46:38.135Z,99.90
2017-12-01T04:49:05.624Z,99.90
2017-12-01T04:51:32.359Z,99.90
2017-12-01T04:53:59.127Z,99.90
2017-12-01T04:56:26.816Z,99.90
2017-12-01T04:58:53.574Z,99.90
2017-12-01T05:01:20.530Z,99.90
2017-12-01T05:03:47.274Z,99.90
2017-12-01T05:06:14.166Z,99.90
2017-12-01T05:08:42.146Z,99.90
2017-12-01T05:11:08.990Z,99.90
2017-12-01T05:13:35.700Z,99.90
2017-12-01T05:16:02.475Z,99.90
2017-12-01T05:18:29.310Z,99.90
2017-12-01T05:20:56.038Z,99.90
2017-12-01T05:23:22.773Z,99.90
2017-12-01T05:25:49.518Z,99.90
2017-12-01T05:28:20.745Z,99.90
2017-12-01T05:30:47.548Z,99.90
2017-12-01T05:33:14.342Z,99.90
2017-12-01T05:35:41.397Z,99.90
2017-12-01T05:38:08.675Z,99.90
2017-12-01T05:40:36.434Z,99.90
2017-12-01T05:43:03.943Z,99.90
2017-12-01T05:45:30.723Z,99.90
2017-12-01T05:47:57.477Z,99.90
2017-12-01T05:50:24.210Z,99.40
2017-12-01T05:52:50.938Z,98.70
2017-12-01T05:55:17.717Z,98.30
2017-12-01T05:57:45.239Z,98.70
2017-12-01T06:00:12.085Z,98.50
2017-12-01T06:02:38.826Z,98.80
2017-12-01T06:05:05.578Z,99.10
2017-12-01T06:07:32.474Z,99.20
2017-12-01T06:10:00.043Z,99.50
2017-12-01T06:12:27.545Z,99.90
2017-12-01T06:14:54.280Z,99.80
2017-12-01T06:17:21.025Z,99.90
2017-12-01T06:19:47.849Z,99.30
2017-12-01T06:22:14.620Z,99.50
2017-12-01T06:24:42.253Z,99.30
2017-12-01T06:27:09.071Z,99.20
2017-12-01T06:29:35.817Z,99.20
2017-12-01T06:32:02.558Z,99.30
2017-12-01T06:34:29.299Z,99.40
2017-12-01T06:36:56.021Z,99.60
2017-12-01T06:39:22.825Z,99.70
2017-12-01T06:41:50.300Z,99.80
2017-12-01T06:44:17.050Z,99.80
2017-12-01T06:46:43.785Z,99.90
2017-12-01T06:49:10.512Z,99.90
2017-12-01T06:51:38.016Z,99.90
2017-12-01T06:54:04.779Z,99.90
2017-12-01T06:56:31.540Z,99.90
2017-12-01T06:58:58.284Z,99.90
2017-12-01T07:01:25.045Z,99.90
2017-12-01T07:03:52.594Z,99.90
2017-12-01T07:06:20.279Z,99.90
2017-12-01T07:08:47.814Z,99.90
2017-12-01T07:11:14.462Z,99.90
2017-12-01T07:13:41.150Z,99.90
2017-12-01T07:16:07.813Z,99.80
2017-12-01T07:18:34.486Z,99.70
2017-12-01T07:21:01.158Z,99.90
2017-12-01T07:23:27.829Z,99.50
2017-12-01T07:25:54.567Z,99.60
2017-12-01T07:28:21.206Z,99.60
2017-12-01T07:30:47.867Z,99.60
2017-12-01T07:33:14.581Z,99.20
2017-12-01T07:35:41.237Z,98.70
2017-12-01T07:38:07.938Z,99.00
2017-12-01T07:40:34.671Z,98.50
2017-12-01T07:43:01.361Z,98.10
2017-12-01T07:45:28.091Z,97.80
2017-12-01T07:47:54.800Z,97.80
2017-12-01T07:50:21.593Z,97.70
2017-12-01T07:52:48.344Z,97.40
2017-12-01T07:55:15.100Z,96.80
2017-12-01T07:57:41.801Z,96.30
2017-12-01T08:00:09.250Z,95.40
2017-12-01T08:02:35.978Z,95.40
2017-12-01T08:05:03.463Z,95.30
2017-12-01T08:07:30.889Z,95.00
2017-12-01T08:09:57.610Z,95.00
2017-12-01T08:12:24.313Z,95.10
2017-12-01T08:14:51.781Z,94.80
2017-12-01T08:17:29.465Z,94.30
2017-12-01T08:19:56.166Z,94.10
2017-12-01T08:22:41.280Z,94.30
2017-12-01T08:25:28.502Z,93.90
2017-12-01T08:27:55.230Z,93.60
2017-12-01T08:30:21.937Z,93.20
2017-12-01T08:32:48.641Z,93.30
2017-12-01T08:35:15.322Z,93.10
2017-12-01T08:37:42.068Z,92.50
2017-12-01T08:40:09.581Z,90.90
2017-12-01T08:42:36.313Z,89.00
2017-12-01T08:45:03.020Z,88.00
2017-12-01T08:47:29.678Z,86.70
2017-12-01T08:49:56.369Z,89.10
2017-12-01T08:52:23.093Z,89.80
2017-12-01T08:54:49.793Z,90.50
2017-12-01T08:57:16.503Z,90.50
2017-12-01T08:59:43.967Z,89.30
2017-12-01T09:02:11.625Z,88.40
2017-12-01T09:04:40.003Z,87.00
2017-12-01T09:07:06.658Z,86.90
2017-12-01T09:09:34.125Z,86.20
2017-12-01T09:12:01.561Z,83.00
2017-12-01T09:14:28.260Z,82.90
2017-12-01T09:16:55.003Z,85.30
2017-12-01T09:19:21.776Z,81.40
2017-12-01T09:21:49.110Z,79.80
2017-12-01T09:24:15.781Z,79.90
2017-12-01T09:26:42.520Z,77.70
2017-12-01T09:29:09.295Z,76.10
2017-12-01T09:31:36.026Z,74.40
2017-12-01T09:34:02.803Z,72.40
2017-12-01T09:36:29.549Z,66.50
2017-12-01T09:38:57.008Z,62.40
2017-12-01T09:41:24.537Z,62.30
2017-12-01T09:43:51.989Z,59.50
2017-12-01T09:46:18.719Z,62.70
2017-12-01T09:48:45.480Z,61.30
2017-12-01T09:51:12.213Z,61.00
2017-12-01T09:53:38.900Z,62.30
2017-12-01T09:56:05.602Z,61.00
2017-12-01T09:58:32.349Z,63.00
2017-12-01T10:00:59.099Z,62.90
2017-12-01T10:03:25.852Z,63.00
2017-12-01T10:05:52.558Z,62.80
2017-12-01T10:08:19.280Z,65.20
2017-12-01T10:10:46.031Z,65.70
2017-12-01T10:13:13.414Z,66.60
2017-12-01T10:15:40.100Z,66.50
2017-12-01T10:18:07.550Z,68.20
2017-12-01T10:20:34.266Z,68.20
2017-12-01T10:23:00.963Z,68.20
2017-12-01T10:25:27.645Z,68.10
2017-12-01T10:27:54.362Z,65.70
2017-12-01T10:30:21.076Z,65.80
2017-12-01T10:32:48.482Z,68.20
2017-12-01T10:35:15.186Z,67.80
2017-12-01T10:37:42.592Z,70.00
2017-12-01T10:40:09.327Z,70.00
2017-12-01T10:42:36.062Z,71.70
2017-12-01T10:45:02.757Z,72.40
2017-12-01T10:47:29.494Z,72.70
2017-12-01T10:49:56.158Z,75.30
2017-12-01T10:52:22.859Z,76.40
2017-12-01T10:54:49.507Z,77.00
2017-12-01T10:57:16.194Z,78.30
2017-12-01T10:59:43.640Z,79.30
2017-12-01T11:02:10.310Z,79.20
2017-12-01T11:04:36.970Z,80.40
2017-12-01T11:07:03.680Z,79.80
2017-12-01T11:09:31.077Z,81.50
2017-12-01T11:11:57.779Z,81.40
2017-12-01T11:14:25.218Z,86.10
2017-12-01T11:16:51.894Z,86.00
2017-12-01T11:19:19.286Z,89.90
2017-12-01T11:21:45.961Z,89.80
2017-12-01T11:24:12.629Z,90.40
2017-12-01T11:26:39.313Z,90.70
2017-12-01T11:29:05.994Z,90.80
2017-12-01T11:31:32.652Z,91.00
2017-12-01T11:33:59.309Z,90.40
2017-12-01T11:36:26.719Z,91.10
2017-12-01T11:38:53.415Z,91.10
2017-12-01T11:41:20.829Z,91.50
2017-12-01T11:43:47.507Z,91.50
2017-12-01T11:46:14.947Z,91.40
2017-12-01T11:48:41.643Z,91.40
2017-12-01T11:51:08.350Z,91.80
2017-12-01T11:53:35.111Z,92.40
2017-12-01T11:56:01.829Z,92.50
2017-12-01T11:58:28.569Z,92.90
2017-12-01T12:00:56.271Z,93.40
2017-12-01T12:03:22.965Z,94.20
2017-12-01T12:05:49.717Z,94.60
2017-12-01T12:08:16.456Z,94.80
2017-12-01T12:10:43.166Z,95.00
2017-12-01T12:13:09.940Z,94.20
2017-12-01T12:15:36.754Z,94.00
2017-12-01T12:18:03.489Z,93.10
2017-12-01T12:20:30.182Z,93.60
2017-12-01T12:22:56.914Z,93.40
2017-12-01T12:25:23.703Z,92.90
2017-12-01T12:27:51.178Z,93.40
2017-12-01T12:30:18.596Z,93.40
2017-12-01T12:32:45.354Z,93.70
2017-12-01T12:35:12.160Z,93.90
2017-12-01T12:37:38.919Z,94.10
2017-12-01T12:40:05.707Z,93.90
2017-12-01T12:42:34.000Z,94.00
2017-12-01T12:45:00.843Z,94.00
2017-12-01T12:47:28.352Z,94.10
2017-12-01T12:49:55.118Z,94.10
2017-12-01T12:52:21.935Z,94.70
2017-12-01T12:54:48.669Z,94.70
2017-12-01T12:57:15.417Z,95.20
2017-12-01T12:59:42.182Z,95.60
2017-12-01T13:02:08.936Z,95.60
2017-12-01T13:04:35.719Z,95.70
2017-12-01T13:07:02.529Z,95.90
2017-12-01T13:09:29.572Z,95.50
2017-12-01T13:11:56.339Z,95.60
2017-12-01T13:14:23.088Z,95.80
2017-12-01T13:16:50.601Z,94.60
2017-12-01T13:19:17.385Z,94.60
2017-12-01T13:21:44.141Z,94.90
2017-12-01T13:24:11.700Z,94.10
2017-12-01T13:26:38.506Z,94.10
2017-12-01T13:29:05.254Z,93.80
2017-12-01T13:31:32.066Z,94.00
2017-12-01T13:33:58.795Z,93.80
2017-12-01T13:36:26.255Z,94.00
2017-12-01T13:38:53.733Z,94.40
2017-12-01T13:41:20.461Z,94.40
2017-12-01T13:43:47.248Z,94.90
2017-12-01T13:46:13.987Z,94.60
2017-12-01T13:48:40.773Z,94.30
2017-12-01T13:51:07.502Z,94.30
2017-12-01T13:53:34.298Z,94.00
2017-12-01T13:56:01.033Z,94.10
2017-12-01T13:58:28.467Z,94.50
2017-12-01T14:00:55.290Z,94.40
2017-12-01T14:03:21.986Z,94.00
2017-12-01T14:05:48.724Z,94.40
2017-12-01T14:08:16.175Z,94.30
2017-12-01T14:10:43.563Z,94.20
2017-12-01T14:13:10.222Z,94.20
2017-12-01T14:15:36.882Z,94.50
2017-12-01T14:18:03.579Z,94.60
2017-12-01T14:20:30.264Z,94.70
2017-12-01T14:22:56.931Z,94.70
2017-12-01T14:25:23.605Z,94.70
2017-12-01T14:27:51.109Z,94.60
2017-12-01T14:30:17.817Z,94.60
2017-12-01T14:32:44.472Z,94.60
2017-12-01T14:35:11.126Z,94.80
2017-12-01T14:37:37.799Z,95.20
2017-12-01T14:40:04.443Z,95.20
2017-12-01T14:42:31.145Z,95.50
2017-12-01T14:44:57.801Z,95.10
2017-12-01T14:47:24.452Z,95.20
2017-12-01T14:49:51.119Z,95.30
2017-12-01T14:52:17.797Z,95.20
2017-12-01T14:54:44.587Z,95.20
2017-12-01T14:57:11.259Z,95.20
2017-12-01T14:59:37.951Z,95.20
2017-12-01T15:02:04.625Z,95.20
2017-12-01T15:04:31.305Z,95.60
2017-12-01T15:06:57.989Z,95.80
2017-12-01T15:09:24.638Z,96.40
2017-12-01T15:11:51.329Z,96.50
2017-12-01T15:14:18.749Z,96.50
2017-12-01T15:16:45.443Z,96.50
2017-12-01T15:19:12.831Z,96.60
2017-12-01T15:21:40.422Z,96.60
2017-12-01T15:24:07.105Z,96.60
2017-12-01T15:26:34.526Z,96.20
2017-12-01T15:29:01.217Z,96.20
2017-12-01T15:31:27.957Z,96.30
2017-12-01T15:33:55.400Z,96.20
2017-12-01T15:36:23.655Z,96.10
2017-12-01T15:38:50.345Z,96.10
2017-12-01T15:41:17.175Z,96.40
2017-12-01T15:43:44.633Z,97.10
2017-12-01T15:46:12.230Z,97.20
2017-12-01T15:48:38.947Z,97.10
2017-12-01T15:51:06.426Z,97.00
2017-12-01T15:53:33.211Z,97.00
2017-12-01T15:55:59.965Z,96.70
2017-12-01T15:58:26.702Z,96.70
2017-12-01T16:00:53.438Z,96.70
2017-12-01T16:03:20.244Z,96.60
2017-12-01T16:05:48.809Z,96.60
2017-12-01T16:08:15.563Z,96.60
2017-12-01T16:10:43.096Z,97.10
2017-12-01T16:13:09.851Z,97.10
2017-12-01T16:15:36.581Z,97.10
2017-12-01T16:18:03.360Z,97.10
2017-12-01T16:20:30.848Z,97.90
2017-12-01T16:22:57.597Z,97.80
2017-12-01T16:25:24.365Z,98.20
2017-12-01T16:27:53.201Z,98.90
2017-12-01T16:30:19.999Z,98.90
2017-12-01T16:32:51.225Z,99.10
2017-12-01T16:35:14.862Z,98.90
2017-12-01T16:37:42.346Z,98.80
2017-12-01T16:40:09.077Z,98.80
2017-12-01T16:42:36.508Z,98.50
2017-12-01T16:45:03.770Z,98.50
2017-12-01T16:47:30.519Z,98.70
2017-12-01T16:49:57.272Z,98.70
2017-12-01T16:52:24.041Z,98.80
2017-12-01T16:54:51.541Z,98.90
2017-12-01T16:57:18.279Z,98.80
2017-12-01T16:59:45.030Z,99.00
2017-12-01T17:02:11.734Z,98.90
2017-12-01T17:04:38.510Z,98.90
2017-12-01T17:07:05.578Z,98.90
2017-12-01T17:09:32.343Z,98.80
2017-12-01T17:11:59.126Z,98.60
2017-12-01T17:14:25.984Z,98.50
2017-12-01T17:16:52.820Z,98.20
2017-12-01T17:19:19.656Z,98.30
2017-12-01T17:21:46.437Z,98.30
2017-12-01T17:24:13.176Z,98.70
2017-12-01T17:26:39.991Z,98.60
2017-12-01T17:29:07.466Z,98.90
2017-12-01T17:31:34.195Z,98.90
2017-12-01T17:34:01.723Z,98.80
2017-12-01T17:36:28.498Z,98.80
2017-12-01T17:38:55.989Z,99.70
2017-12-01T17:41:22.768Z,99.70
2017-12-01T17:43:49.514Z,99.90
2017-12-01T17:46:17.014Z,99.90
2017-12-01T17:48:44.500Z,99.90
2017-12-01T17:51:11.256Z,99.90
2017-12-01T17:53:38.042Z,99.90
2017-12-01T17:56:04.798Z,99.90
2017-12-01T17:58:32.280Z,99.90
2017-12-01T18:00:59.064Z,99.90
2017-12-01T18:03:25.779Z,99.90
2017-12-01T18:05:52.545Z,99.80
2017-12-01T18:08:19.298Z,99.70
2017-12-01T18:10:46.090Z,99.40
2017-12-01T18:13:12.922Z,99.10
2017-12-01T18:15:39.696Z,99.10
2017-12-01T18:18:07.191Z,98.90
2017-12-01T18:20:33.959Z,98.90
2017-12-01T18:23:00.707Z,98.50
2017-12-01T18:25:27.496Z,98.60
2017-12-01T18:27:54.267Z,98.40
2017-12-01T18:30:20.990Z,98.10
2017-12-01T18:32:47.758Z,98.00
2017-12-01T18:35:14.482Z,98.10
2017-12-01T18:37:41.226Z,98.20
2017-12-01T18:40:07.964Z,98.20
2017-12-01T18:42:34.701Z,98.30
2017-12-01T18:45:01.445Z,98.20
2017-12-01T18:47:28.198Z,98.10
2017-12-01T18:49:55.191Z,98.00
2017-12-01T18:52:21.965Z,98.00
2017-12-01T18:54:48.806Z,98.00
2017-12-01T18:57:15.533Z,98.30
2017-12-01T18:59:42.354Z,98.30
2017-12-01T19:02:10.159Z,98.50
2017-12-01T19:04:37.061Z,98.10
2017-12-01T19:07:03.893Z,97.70
2017-12-01T19:09:30.685Z,98.00
2017-12-01T19:11:57.399Z,97.90
2017-12-01T19:14:24.155Z,97.90
2017-12-01T19:16:50.912Z,97.80
2017-12-01T19:19:17.674Z,97.80
2017-12-01T19:21:44.509Z,97.90
2017-12-01T19:24:11.980Z,97.90
2017-12-01T19:26:39.030Z,97.90
2017-12-01T19:29:05.785Z,98.00
2017-12-01T19:31:32.513Z,98.10
2017-12-01T19:33:59.322Z,98.40
2017-12-01T19:36:26.067Z,98.20
2017-12-01T19:38:52.858Z,98.30
2017-12-01T19:41:19.598Z,98.60
2017-12-01T19:43:46.341Z,98.60
2017-12-01T19:46:13.084Z,98.80
2017-12-01T19:48:39.812Z,99.10
2017-12-01T19:51:06.545Z,99.10
2017-12-01T19:53:33.406Z,99.30
2017-12-01T19:56:00.163Z,99.90
2017-12-01T19:58:26.907Z,99.80
2017-12-01T20:00:53.673Z,99.60
2017-12-01T20:03:20.450Z,99.60
2017-12-01T20:05:47.217Z,99.60
2017-12-01T20:08:13.963Z,99.10
2017-12-01T20:10:40.730Z,99.20
2017-12-01T20:13:07.486Z,99.20
2017-12-01T20:15:34.269Z,98.90
2017-12-01T20:18:00.997Z,98.90
2017-12-01T20:20:28.496Z,99.20
2017-12-01T20:22:55.281Z,99.20
2017-12-01T20:25:22.050Z,99.30
2017-12-01T20:27:49.549Z,99.60
2017-12-01T20:30:16.282Z,99.60
2017-12-01T20:32:43.050Z,99.60
2017-12-01T20:35:09.838Z,99.60
2017-12-01T20:37:37.287Z,99.80
2017-12-01T20:40:04.148Z,99.80
2017-12-01T20:42:31.730Z,99.70
2017-12-01T20:44:58.527Z,99.70
2017-12-01T20:47:25.277Z,99.70
2017-12-01T20:49:51.990Z,99.70
2017-12-01T20:52:18.753Z,99.70
2017-12-01T20:54:45.598Z,99.70
2017-12-01T20:57:12.321Z,99.80
2017-12-01T20:59:39.105Z,99.70
2017-12-01T21:02:07.521Z,99.60
2017-12-01T21:04:34.987Z,99.20
2017-12-01T21:07:02.530Z,99.20
2017-12-01T21:09:29.988Z,99.00
2017-12-01T21:11:56.710Z,99.00
2017-12-01T21:14:23.459Z,98.80
2017-12-01T21:16:50.215Z,98.90
2017-12-01T21:19:17.749Z,98.70
2017-12-01T21:21:44.510Z,98.70
2017-12-01T21:24:11.304Z,98.60
2017-12-01T21:26:38.001Z,98.60
2017-12-01T21:29:04.749Z,98.50
2017-12-01T21:31:31.572Z,98.40
2017-12-01T21:33:58.323Z,98.50
2017-12-01T21:36:25.079Z,98.40
2017-12-01T21:38:52.681Z,98.50
2017-12-01T21:41:19.409Z,98.60
2017-12-01T21:43:46.889Z,99.00
2017-12-01T21:46:14.326Z,98.80
2017-12-01T21:48:41.037Z,98.80
2017-12-01T21:51:07.753Z,98.60
2017-12-01T21:53:34.437Z,98.90
2017-12-01T21:56:01.097Z,98.90
2017-12-01T21:58:27.843Z,98.30
2017-12-01T22:00:54.538Z,98.40
2017-12-01T22:03:21.188Z,98.20
2017-12-01T22:05:47.852Z,98.30
2017-12-01T22:08:14.571Z,98.10
2017-12-01T22:10:41.274Z,97.50
2017-12-01T22:13:08.729Z,97.10
2017-12-01T22:15:36.254Z,97.80
2017-12-01T22:18:03.007Z,97.80
2017-12-01T22:20:29.730Z,97.60
2017-12-01T22:22:56.482Z,97.70
2017-12-01T22:25:23.253Z,98.10
2017-12-01T22:27:49.972Z,98.30
2017-12-01T22:30:17.506Z,98.80
2017-12-01T22:32:44.214Z,99.20
2017-12-01T22:35:11.691Z,99.80
2017-12-01T22:37:39.144Z,99.90
2017-12-01T22:40:06.547Z,99.90
2017-12-01T22:42:33.271Z,99.90
2017-12-01T22:44:59.981Z,99.90
2017-12-01T22:47:27.430Z,99.90
2017-12-01T22:49:54.164Z,99.90
2017-12-01T22:52:20.870Z,99.90
2017-12-01T22:54:47.874Z,99.90
2017-12-01T22:57:14.558Z,99.90
2017-12-01T22:59:41.255Z,99.90
2017-12-01T23:02:07.888Z,99.90
2017-12-01T23:04:34.580Z,99.80
2017-12-01T23:07:01.252Z,99.90
2017-12-01T23:09:27.983Z,99.50
2017-12-01T23:11:54.702Z,99.20
2017-12-01T23:14:21.456Z,99.20
2017-12-01T23:16:48.070Z,99.00
2017-12-01T23:19:15.500Z,98.70
2017-12-01T23:21:42.201Z,98.70
2017-12-01T23:24:08.884Z,98.70
2017-12-01T23:26:35.593Z,99.10
2017-12-01T23:29:02.367Z,99.50
2017-12-01T23:31:29.056Z,99.30
2017-12-01T23:33:56.481Z,98.80
2017-12-01T23:36:23.152Z,98.80
2017-12-01T23:38:50.788Z,98.80
2017-12-01T23:41:17.522Z,98.80
2017-12-01T23:43:44.274Z,98.20
2017-12-01T23:46:11.007Z,98.00
2017-12-01T23:48:37.692Z,97.60
2017-12-01T23:51:05.139Z,97.60
2017-12-01T23:53:31.842Z,97.60
2017-12-01T23:55:58.557Z,97.60
2017-12-01T23:58:26.041Z,97.30
